createdAt,value
2024-03-08T00:00:35.566Z,20.19
2024-03-08T00:01:35.591Z,20.19
2024-03-08T00:02:35.632Z,20.18
2024-03-08T00:03:35.619Z,20.19
2024-03-08T00:04:35.613Z,20.18
2024-03-08T00:05:35.670Z,20.18
2024-03-08T00:06:35.668Z,20.17
2024-03-08T00:07:35.670Z,20.17
2024-03-08T00:08:35.701Z,20.16
2024-03-08T00:09:35.674Z,20.17
2024-03-08T00:10:35.752Z,20.16
2024-03-08T00:11:35.888Z,20.17
2024-03-08T00:12:35.743Z,20.15
2024-03-08T00:13:35.761Z,20.15
2024-03-08T00:14:35.778Z,20.15
2024-03-08T00:15:35.791Z,20.15
2024-03-08T00:16:35.785Z,20.15
2024-03-08T00:17:35.862Z,20.15
2024-03-08T00:18:35.932Z,20.16
2024-03-08T00:19:35.861Z,20.16
2024-03-08T00:20:35.909Z,20.17
2024-03-08T00:21:35.900Z,20.18
2024-03-08T00:22:35.898Z,20.18
2024-03-08T00:23:35.955Z,20.20
2024-03-08T00:24:35.940Z,20.21
2024-03-08T00:25:35.962Z,20.21
2024-03-08T00:26:35.985Z,20.21
2024-03-08T00:27:35.997Z,20.22
2024-03-08T00:28:36.038Z,20.22
2024-03-08T00:29:36.048Z,20.22
2024-03-08T00:30:36.030Z,20.22
2024-03-08T00:31:36.056Z,20.23
2024-03-08T00:32:36.183Z,20.23
2024-03-08T00:33:36.146Z,20.24
2024-03-08T00:34:36.090Z,20.24
2024-03-08T00:35:36.130Z,20.24
2024-03-08T00:36:36.137Z,20.24
2024-03-08T00:37:36.208Z,20.23
2024-03-08T00:38:36.171Z,20.24
2024-03-08T00:39:36.166Z,20.24
2024-03-08T00:40:36.174Z,20.25
2024-03-08T00:41:36.278Z,20.25
2024-03-08T00:42:36.207Z,20.25
2024-03-08T00:43:36.211Z,20.25
2024-03-08T00:44:36.277Z,20.25
2024-03-08T00:45:36.232Z,20.24
2024-03-08T00:46:36.262Z,20.25
2024-03-08T00:47:36.376Z,20.25
2024-03-08T00:48:36.362Z,20.26
2024-03-08T00:49:36.298Z,20.25
2024-03-08T00:50:36.375Z,20.25
2024-03-08T00:51:36.346Z,20.24
2024-03-08T00:52:36.363Z,20.25
2024-03-08T00:53:36.434Z,20.25
2024-03-08T00:54:36.381Z,20.25
2024-03-08T00:55:36.410Z,20.25
2024-03-08T00:56:36.450Z,20.25
2024-03-08T00:57:36.421Z,20.25
2024-03-08T00:58:36.459Z,20.24
2024-03-08T00:59:36.513Z,20.24
2024-03-08T01:00:36.489Z,20.25
2024-03-08T01:01:36.486Z,20.25
2024-03-08T01:02:36.582Z,20.24
2024-03-08T01:03:36.516Z,20.25
2024-03-08T01:04:36.530Z,20.25
2024-03-08T01:05:36.544Z,20.24
2024-03-08T01:06:36.529Z,20.25
2024-03-08T01:07:36.645Z,20.24
2024-03-08T01:08:36.595Z,20.24
2024-03-08T01:09:36.656Z,20.24
2024-03-08T01:10:36.598Z,20.25
2024-03-08T01:11:36.728Z,20.24
2024-03-08T01:12:36.618Z,20.24
2024-03-08T01:13:37.077Z,20.25
2024-03-08T01:14:36.674Z,20.24
2024-03-08T01:15:37.541Z,20.24
2024-03-08T01:16:36.648Z,20.24
2024-03-08T01:17:36.822Z,20.24
2024-03-08T01:18:36.812Z,20.24
2024-03-08T01:19:36.751Z,20.24
2024-03-08T01:20:36.745Z,20.23
2024-03-08T01:21:36.778Z,20.25
2024-03-08T01:22:37.059Z,20.24
2024-03-08T01:23:36.773Z,20.24
2024-03-08T01:24:36.734Z,20.24
2024-03-08T01:25:36.753Z,20.23
2024-03-08T01:26:36.823Z,20.23
2024-03-08T01:27:36.825Z,20.23
2024-03-08T01:28:36.774Z,20.23
2024-03-08T01:29:36.803Z,20.23
2024-03-08T01:30:36.809Z,20.23
2024-03-08T01:31:36.825Z,20.23
2024-03-08T01:32:36.948Z,20.23
2024-03-08T01:33:37.019Z,20.24
2024-03-08T01:34:36.872Z,20.23
2024-03-08T01:35:36.926Z,20.24
2024-03-08T01:36:36.890Z,20.23
2024-03-08T01:37:36.893Z,20.24
2024-03-08T01:38:36.958Z,20.24
2024-03-08T01:39:36.948Z,20.23
2024-03-08T01:40:36.959Z,20.23
2024-03-08T01:41:37.133Z,20.23
2024-03-08T01:42:36.965Z,20.24
2024-03-08T01:43:37.029Z,20.22
2024-03-08T01:44:37.006Z,20.22
2024-03-08T01:45:37.001Z,20.23
2024-03-08T01:46:37.020Z,20.23
2024-03-08T01:47:37.153Z,20.22
2024-03-08T01:48:37.135Z,20.22
2024-03-08T01:49:37.057Z,20.22
2024-03-08T01:50:37.114Z,20.22
2024-03-08T01:51:37.079Z,20.23
2024-03-08T01:52:37.121Z,20.23
2024-03-08T01:53:37.128Z,20.22
2024-03-08T01:54:37.194Z,20.22
2024-03-08T01:55:37.159Z,20.22
2024-03-08T01:56:37.151Z,20.22
2024-03-08T01:57:37.179Z,20.22
2024-03-08T01:58:37.170Z,20.21
2024-03-08T01:59:37.190Z,20.22
2024-03-08T02:00:37.200Z,20.22
2024-03-08T02:01:37.245Z,20.22
2024-03-08T02:02:37.238Z,20.22
2024-03-08T02:03:37.251Z,20.22
2024-03-08T02:04:37.263Z,20.22
2024-03-08T02:05:37.372Z,20.22
2024-03-08T02:06:37.320Z,20.21
2024-03-08T02:07:37.283Z,20.22
2024-03-08T02:08:37.375Z,20.22
2024-03-08T02:09:37.349Z,20.22
2024-03-08T02:10:37.377Z,20.22
2024-03-08T02:11:37.880Z,20.22
2024-03-08T02:12:37.595Z,20.22
2024-03-08T02:13:37.483Z,20.22
2024-03-08T02:14:37.548Z,20.22
2024-03-08T02:15:37.494Z,20.22
2024-03-08T02:16:37.528Z,20.22
2024-03-08T02:17:37.633Z,20.21
2024-03-08T02:18:38.086Z,20.21
2024-03-08T02:19:37.562Z,20.22
2024-03-08T02:20:37.596Z,20.22
2024-03-08T02:21:37.580Z,20.21
2024-03-08T02:22:37.597Z,20.22
2024-03-08T02:23:37.637Z,20.22
2024-03-08T02:24:37.605Z,20.21
2024-03-08T02:25:37.658Z,20.21
2024-03-08T02:26:37.661Z,20.21
2024-03-08T02:27:37.665Z,20.22
2024-03-08T02:28:37.684Z,20.21
2024-03-08T02:29:37.748Z,20.21
2024-03-08T02:30:37.704Z,20.22
2024-03-08T02:31:37.746Z,20.21
2024-03-08T02:32:37.824Z,20.21
2024-03-08T02:33:37.801Z,20.21
2024-03-08T02:34:37.760Z,20.21
2024-03-08T02:35:37.783Z,20.21
2024-03-08T02:36:37.801Z,20.21
2024-03-08T02:37:37.813Z,20.21
2024-03-08T02:38:37.854Z,20.21
2024-03-08T02:39:37.828Z,20.20
2024-03-08T02:40:37.858Z,20.21
2024-03-08T02:41:37.901Z,20.21
2024-03-08T02:42:37.884Z,20.20
2024-03-08T02:43:37.882Z,20.20
2024-03-08T02:44:37.928Z,20.20
2024-03-08T02:45:37.921Z,20.20
2024-03-08T02:46:37.929Z,20.21
2024-03-08T02:47:38.045Z,20.21
2024-03-08T02:48:38.074Z,20.21
2024-03-08T02:49:37.976Z,20.20
2024-03-08T02:50:38.094Z,20.20
2024-03-08T02:51:37.998Z,20.20
2024-03-08T02:52:38.034Z,20.20
2024-03-08T02:53:38.097Z,20.20
2024-03-08T02:54:38.049Z,20.20
2024-03-08T02:55:38.066Z,20.20
2024-03-08T02:56:38.113Z,20.20
2024-03-08T02:57:38.127Z,20.20
2024-03-08T02:58:38.155Z,20.20
2024-03-08T02:59:38.173Z,20.20
2024-03-08T03:00:38.236Z,20.20
2024-03-08T03:01:38.181Z,20.20
2024-03-08T03:02:38.239Z,20.20
2024-03-08T03:03:38.217Z,20.20
2024-03-08T03:04:38.240Z,20.19
2024-03-08T03:05:38.296Z,20.20
2024-03-08T03:06:38.284Z,20.19
2024-03-08T03:07:38.282Z,20.19
2024-03-08T03:08:38.325Z,20.19
2024-03-08T03:09:38.332Z,20.19
2024-03-08T03:10:38.486Z,20.19
2024-03-08T03:11:38.403Z,20.19
2024-03-08T03:12:38.421Z,20.19
2024-03-08T03:13:38.401Z,20.19
2024-03-08T03:14:38.456Z,20.19
2024-03-08T03:15:38.450Z,20.19
2024-03-08T03:16:38.519Z,20.19
2024-03-08T03:17:38.613Z,20.19
2024-03-08T03:18:38.569Z,20.18
2024-03-08T03:19:38.510Z,20.19
2024-03-08T03:20:38.623Z,20.18
2024-03-08T03:21:38.591Z,20.19
2024-03-08T03:22:38.603Z,20.19
2024-03-08T03:23:38.622Z,20.18
2024-03-08T03:24:38.619Z,20.18
2024-03-08T03:25:38.628Z,20.18
2024-03-08T03:26:38.720Z,20.19
2024-03-08T03:27:38.663Z,20.19
2024-03-08T03:28:38.670Z,20.18
2024-03-08T03:29:38.707Z,20.18
2024-03-08T03:30:38.711Z,20.18
2024-03-08T03:31:38.752Z,20.18
2024-03-08T03:32:38.820Z,20.18
2024-03-08T03:33:38.877Z,20.17
2024-03-08T03:34:38.787Z,20.18
2024-03-08T03:35:39.402Z,20.18
2024-03-08T03:36:38.813Z,20.17
2024-03-08T03:37:38.829Z,20.17
2024-03-08T03:38:38.857Z,20.17
2024-03-08T03:39:38.829Z,20.17
2024-03-08T03:40:38.887Z,20.18
2024-03-08T03:41:38.878Z,20.18
2024-03-08T03:42:38.885Z,20.19
2024-03-08T03:43:38.901Z,20.18
2024-03-08T03:44:38.950Z,20.18
2024-03-08T03:45:39.011Z,20.17
2024-03-08T03:46:38.950Z,20.17
2024-03-08T03:47:38.995Z,20.17
2024-03-08T03:48:39.196Z,20.16
2024-03-08T03:49:39.012Z,20.17
2024-03-08T03:50:39.033Z,20.16
2024-03-08T03:51:38.992Z,20.16
2024-03-08T03:52:39.020Z,20.16
2024-03-08T03:53:39.043Z,20.16
2024-03-08T03:54:39.028Z,20.17
2024-03-08T03:55:39.039Z,20.16
2024-03-08T03:56:39.185Z,20.16
2024-03-08T03:57:39.064Z,20.16
2024-03-08T03:58:39.093Z,20.16
2024-03-08T03:59:39.102Z,20.16
2024-03-08T04:00:39.115Z,20.16
2024-03-08T04:01:39.851Z,20.16
2024-03-08T04:02:39.181Z,20.16
2024-03-08T04:03:39.166Z,20.16
2024-03-08T04:04:39.190Z,20.16
2024-03-08T04:05:39.318Z,20.15
2024-03-08T04:06:39.218Z,20.16
2024-03-08T04:07:39.242Z,20.16
2024-03-08T04:08:39.287Z,20.16
2024-03-08T04:09:39.276Z,20.16
2024-03-08T04:10:39.323Z,20.16
2024-03-08T04:11:39.399Z,20.16
2024-03-08T04:12:39.365Z,20.16
2024-03-08T04:13:39.348Z,20.16
2024-03-08T04:14:39.418Z,20.16
2024-03-08T04:15:39.393Z,20.15
2024-03-08T04:16:39.378Z,20.15
2024-03-08T04:17:39.576Z,20.16
2024-03-08T04:18:39.590Z,20.15
2024-03-08T04:19:46.786Z,20.13
2024-03-08T04:20:46.848Z,20.14
2024-03-08T04:21:46.805Z,20.15
2024-03-08T04:22:46.792Z,20.15
2024-03-08T04:23:46.878Z,20.15
2024-03-08T04:24:46.797Z,20.15
2024-03-08T04:25:46.831Z,20.15
2024-03-08T04:26:46.829Z,20.15
2024-03-08T04:27:46.845Z,20.15
2024-03-08T04:28:46.808Z,20.15
2024-03-08T04:29:46.835Z,20.15
2024-03-08T04:30:46.810Z,20.15
2024-03-08T04:31:54.017Z,20.12
2024-03-08T04:32:54.186Z,20.13
2024-03-08T04:33:54.114Z,20.15
2024-03-08T04:34:53.995Z,20.14
2024-03-08T04:35:54.080Z,20.15
2024-03-08T04:36:54.025Z,20.15
2024-03-08T04:37:54.008Z,20.15
2024-03-08T04:38:54.068Z,20.16
2024-03-08T04:39:54.001Z,20.15
2024-03-08T04:40:54.029Z,20.15
2024-03-08T04:41:54.019Z,20.15
2024-03-08T04:42:54.018Z,20.15
2024-03-08T04:43:54.040Z,20.14
2024-03-08T04:44:54.010Z,20.15
2024-03-08T04:45:54.012Z,20.14
2024-03-08T04:46:54.031Z,20.15
2024-03-08T04:47:54.124Z,20.15
2024-03-08T04:48:54.122Z,20.15
2024-03-08T04:49:54.019Z,20.15
2024-03-08T04:50:54.036Z,20.15
2024-03-08T04:51:54.043Z,20.16
2024-03-08T04:52:54.028Z,20.17
2024-03-08T04:53:54.057Z,20.18
2024-03-08T04:54:54.041Z,20.21
2024-03-08T04:55:54.032Z,20.23
2024-03-08T04:56:54.042Z,20.25
2024-03-08T04:57:54.033Z,20.28
2024-03-08T04:58:54.029Z,20.32
2024-03-08T04:59:54.061Z,20.35
2024-03-08T05:00:54.078Z,20.39
2024-03-08T05:01:54.034Z,20.41
2024-03-08T05:02:54.141Z,20.43
2024-03-08T05:03:54.050Z,20.45
2024-03-08T05:04:54.028Z,20.48
2024-03-08T05:05:54.061Z,20.50
2024-03-08T05:06:54.059Z,20.51
2024-03-08T05:07:54.044Z,20.52
2024-03-08T05:08:54.083Z,20.54
2024-03-08T05:09:54.045Z,20.56
2024-03-08T05:10:54.082Z,20.56
2024-03-08T05:11:54.063Z,20.58
2024-03-08T05:12:57.169Z,20.58
2024-03-08T05:13:54.041Z,20.59
2024-03-08T05:14:54.067Z,20.60
2024-03-08T05:15:54.061Z,20.61
2024-03-08T05:16:54.042Z,20.62
2024-03-08T05:17:54.125Z,20.64
2024-03-08T05:18:54.128Z,20.65
2024-03-08T05:19:54.047Z,20.66
2024-03-08T05:20:54.108Z,20.68
2024-03-08T05:21:54.070Z,20.69
2024-03-08T05:22:54.054Z,20.70
2024-03-08T05:23:54.105Z,20.70
2024-03-08T05:24:54.048Z,20.71
2024-03-08T05:25:54.056Z,20.71
2024-03-08T05:26:54.062Z,20.71
2024-03-08T05:27:54.053Z,20.72
2024-03-08T05:28:54.074Z,20.72
2024-03-08T05:29:54.074Z,20.73
2024-03-08T05:30:54.084Z,20.74
2024-03-08T05:31:54.247Z,20.75
2024-03-08T05:32:54.251Z,20.76
2024-03-08T05:33:54.115Z,20.76
2024-03-08T05:34:54.062Z,20.75
2024-03-08T05:35:54.122Z,20.76
2024-03-08T05:36:54.065Z,20.77
2024-03-08T05:37:54.088Z,20.76
2024-03-08T05:38:54.104Z,20.78
2024-03-08T05:39:54.082Z,20.79
2024-03-08T05:40:54.063Z,20.80
2024-03-08T05:41:54.166Z,20.80
2024-03-08T05:42:54.063Z,20.82
2024-03-08T05:43:54.067Z,20.83
2024-03-08T05:44:54.134Z,20.83
2024-03-08T05:45:54.070Z,20.85
2024-03-08T05:46:54.076Z,20.86
2024-03-08T05:47:54.228Z,20.85
2024-03-08T05:48:54.204Z,20.87
2024-03-08T05:49:54.153Z,20.87
2024-03-08T05:50:54.231Z,20.88
2024-03-08T05:51:54.276Z,20.89
2024-03-08T05:52:54.308Z,20.89
2024-03-08T05:53:54.453Z,20.90
2024-03-08T05:54:54.384Z,20.90
2024-03-08T05:55:54.439Z,20.91
2024-03-08T05:56:54.598Z,20.91
2024-03-08T05:57:54.535Z,20.91
2024-03-08T05:58:54.603Z,20.92
2024-03-08T05:59:54.709Z,20.92
2024-03-08T06:00:54.818Z,20.92
2024-03-08T06:01:54.772Z,20.92
2024-03-08T06:02:54.861Z,20.93
2024-03-08T06:03:54.828Z,20.93
2024-03-08T06:04:54.883Z,20.94
2024-03-08T06:05:54.970Z,20.94
2024-03-08T06:06:54.973Z,20.93
2024-03-08T06:07:54.995Z,20.94
2024-03-08T06:08:55.124Z,20.95
2024-03-08T06:09:55.088Z,20.97
2024-03-08T06:10:55.237Z,20.98
2024-03-08T06:11:55.742Z,21.00
2024-03-08T06:12:55.203Z,21.03
2024-03-08T06:13:55.243Z,21.05
2024-03-08T06:14:55.321Z,21.06
2024-03-08T06:15:55.285Z,21.07
2024-03-08T06:16:55.344Z,21.09
2024-03-08T06:17:55.417Z,21.09
2024-03-08T06:18:55.473Z,21.10
2024-03-08T06:19:55.469Z,21.13
2024-03-08T06:20:56.545Z,21.14
2024-03-08T06:21:55.498Z,21.15
2024-03-08T06:22:55.521Z,21.16
2024-03-08T06:23:55.551Z,21.17
2024-03-08T06:24:55.675Z,21.19
2024-03-08T06:25:55.654Z,21.20
2024-03-08T06:26:55.757Z,21.20
2024-03-08T06:27:55.766Z,21.21
2024-03-08T06:28:55.741Z,21.22
2024-03-08T06:29:55.805Z,21.22
2024-03-08T06:30:55.789Z,21.23
2024-03-08T06:31:57.248Z,21.25
2024-03-08T06:32:56.137Z,21.31
2024-03-08T06:33:56.770Z,21.36
2024-03-08T06:34:55.924Z,21.39
2024-03-08T06:35:56.022Z,21.42
2024-03-08T06:36:55.964Z,21.49
2024-03-08T06:37:55.952Z,21.60
2024-03-08T06:38:56.056Z,21.72
2024-03-08T06:39:56.034Z,21.86
2024-03-08T06:40:56.170Z,22.06
2024-03-08T06:41:56.155Z,22.35
2024-03-08T06:42:56.195Z,22.20
2024-03-08T06:43:56.327Z,22.15
2024-03-08T06:44:56.418Z,22.10
2024-03-08T06:45:56.364Z,22.10
2024-03-08T06:46:59.550Z,22.09
2024-03-08T06:47:56.496Z,22.10
2024-03-08T06:48:56.472Z,22.11
2024-03-08T06:49:56.374Z,22.13
2024-03-08T06:50:56.475Z,22.14
2024-03-08T06:51:56.371Z,22.18
2024-03-08T06:52:56.401Z,22.23
2024-03-08T06:53:56.519Z,22.28
2024-03-08T06:54:56.378Z,22.32
2024-03-08T06:55:56.387Z,22.35
2024-03-08T06:56:56.414Z,22.37
2024-03-08T06:57:56.441Z,22.39
2024-03-08T06:58:56.412Z,22.40
2024-03-08T06:59:56.456Z,22.42
2024-03-08T07:00:56.416Z,22.45
2024-03-08T07:01:56.399Z,22.49
2024-03-08T07:02:56.401Z,22.52
2024-03-08T07:03:56.383Z,22.54
2024-03-08T07:04:56.388Z,22.55
2024-03-08T07:05:56.472Z,22.58
2024-03-08T07:06:56.388Z,22.60
2024-03-08T07:07:56.395Z,22.63
2024-03-08T07:08:56.453Z,22.65
2024-03-08T07:09:56.375Z,22.67
2024-03-08T07:10:56.414Z,22.69
2024-03-08T07:11:56.492Z,22.73
2024-03-08T07:12:56.421Z,22.74
2024-03-08T07:13:56.462Z,22.77
2024-03-08T07:14:56.427Z,22.79
2024-03-08T07:15:56.464Z,22.80
2024-03-08T07:16:56.413Z,22.82
2024-03-08T07:17:56.471Z,22.84
2024-03-08T07:18:56.553Z,22.84
2024-03-08T07:19:56.421Z,22.86
2024-03-08T07:20:56.465Z,22.87
2024-03-08T07:21:56.421Z,22.93
2024-03-08T07:22:56.393Z,22.95
2024-03-08T07:23:56.488Z,22.98
2024-03-08T07:24:56.497Z,23.00
2024-03-08T07:25:56.538Z,23.02
2024-03-08T07:26:56.684Z,23.05
2024-03-08T07:27:56.646Z,23.05
2024-03-08T07:28:56.694Z,23.06
2024-03-08T07:30:56.759Z,23.12
2024-03-08T07:31:56.751Z,23.13
2024-03-08T07:32:57.290Z,23.14
2024-03-08T07:33:56.776Z,23.17
2024-03-08T07:34:56.752Z,23.17
2024-03-08T07:35:56.759Z,23.17
2024-03-08T07:36:56.779Z,23.19
2024-03-08T07:37:56.764Z,23.22
2024-03-08T07:38:56.786Z,23.26
2024-03-08T07:39:56.763Z,23.26
2024-03-08T07:40:56.748Z,23.27
2024-03-08T07:41:56.765Z,23.27
2024-03-08T07:42:56.749Z,23.27
2024-03-08T07:43:56.754Z,23.27
2024-03-08T07:44:56.800Z,23.26
2024-03-08T07:45:56.770Z,23.26
2024-03-08T07:46:58.322Z,23.25
2024-03-08T07:47:56.961Z,23.24
2024-03-08T07:48:56.816Z,23.23
2024-03-08T07:49:56.791Z,23.22
2024-03-08T07:50:57.060Z,23.22
2024-03-08T07:51:56.765Z,23.21
2024-03-08T07:52:57.220Z,23.21
2024-03-08T07:54:56.780Z,23.18
2024-03-08T07:55:56.786Z,23.18
2024-03-08T07:56:56.759Z,23.19
2024-03-08T07:57:56.783Z,23.18
2024-03-08T07:58:56.944Z,23.19
2024-03-08T07:59:56.825Z,23.19
2024-03-08T08:00:56.911Z,23.18
2024-03-08T08:01:57.059Z,23.17
2024-03-08T08:02:57.120Z,23.19
2024-03-08T08:03:57.176Z,23.18
2024-03-08T08:04:57.240Z,23.19
2024-03-08T08:05:57.282Z,23.18
2024-03-08T08:06:57.357Z,23.18
2024-03-08T08:07:57.863Z,23.18
2024-03-08T08:08:57.460Z,23.18
2024-03-08T08:09:57.530Z,23.19
2024-03-08T08:10:57.764Z,23.19
2024-03-08T08:11:57.653Z,23.19
2024-03-08T08:12:57.753Z,23.18
2024-03-08T08:13:57.821Z,23.18
2024-03-08T08:14:57.872Z,23.18
2024-03-08T08:15:57.942Z,23.20
2024-03-08T08:16:57.988Z,23.19
2024-03-08T08:17:58.119Z,23.20
2024-03-08T08:18:58.150Z,23.20
2024-03-08T08:19:58.240Z,23.20
2024-03-08T08:20:58.250Z,23.21
2024-03-08T08:21:58.306Z,23.22
2024-03-08T08:22:58.396Z,23.21
2024-03-08T08:23:58.444Z,23.21
2024-03-08T08:24:58.521Z,23.22
2024-03-08T08:25:58.643Z,23.23
2024-03-08T08:26:58.651Z,23.22
2024-03-08T08:27:58.724Z,23.22
2024-03-08T08:28:58.785Z,23.21
2024-03-08T08:29:58.861Z,23.22
2024-03-08T08:30:58.939Z,23.23
2024-03-08T08:31:59.754Z,23.23
2024-03-08T08:32:59.305Z,23.23
2024-03-08T08:33:59.141Z,23.23
2024-03-08T08:34:59.264Z,23.21
2024-03-08T08:35:59.259Z,23.19
2024-03-08T08:36:59.339Z,23.21
2024-03-08T08:37:59.398Z,23.21
2024-03-08T08:38:59.460Z,23.22
2024-03-08T08:39:59.503Z,23.22
2024-03-08T08:40:59.600Z,23.22
2024-03-08T08:41:59.775Z,23.22
2024-03-08T08:42:59.767Z,23.22
2024-03-08T08:44:08.870Z,23.21
2024-03-08T08:45:09.078Z,23.19
2024-03-08T08:46:00.795Z,23.18
2024-03-08T08:47:06.276Z,23.19
2024-03-08T08:48:01.306Z,23.19
2024-03-08T08:48:59.816Z,23.18
2024-03-08T08:49:59.822Z,23.17
2024-03-08T08:50:59.810Z,23.17
2024-03-08T08:52:06.470Z,23.17
2024-03-08T08:53:00.868Z,23.16
2024-03-08T08:53:59.819Z,23.16
2024-03-08T08:54:59.842Z,23.17
2024-03-08T08:55:59.825Z,23.17
2024-03-08T08:56:59.853Z,23.17
2024-03-08T08:57:59.806Z,23.17
2024-03-08T08:58:59.875Z,23.18
2024-03-08T08:59:59.831Z,23.16
2024-03-08T09:00:59.899Z,23.16
2024-03-08T09:02:00.002Z,23.16
2024-03-08T09:02:59.981Z,23.16
2024-03-08T09:04:00.045Z,23.15
2024-03-08T09:05:00.289Z,23.15
2024-03-08T09:06:00.163Z,23.16
2024-03-08T09:07:00.789Z,23.16
2024-03-08T09:08:00.417Z,23.16
2024-03-08T09:09:02.362Z,23.15
2024-03-08T09:10:00.930Z,23.16
2024-03-08T09:11:01.468Z,23.14
2024-03-08T09:12:00.657Z,23.15
2024-03-08T09:13:00.341Z,23.15
2024-03-08T09:14:00.517Z,23.15
2024-03-08T09:15:00.369Z,23.15
2024-03-08T09:16:00.369Z,23.15
2024-03-08T09:17:00.416Z,23.13
2024-03-08T09:18:00.618Z,23.13
2024-03-08T09:19:00.463Z,23.12
2024-03-08T09:20:00.541Z,23.12
2024-03-08T09:21:00.489Z,23.11
2024-03-08T09:22:00.599Z,23.11
2024-03-08T09:23:00.697Z,23.10
2024-03-08T09:24:00.735Z,23.10
2024-03-08T09:25:00.763Z,23.09
2024-03-08T09:26:00.951Z,23.10
2024-03-08T09:27:00.893Z,23.06
2024-03-08T09:28:00.861Z,22.99
2024-03-08T09:29:00.952Z,22.91
2024-03-08T09:30:00.886Z,22.83
2024-03-08T09:31:00.959Z,22.74
2024-03-08T09:32:00.917Z,22.68
2024-03-08T09:33:00.978Z,22.62
2024-03-08T09:34:00.980Z,22.57
2024-03-08T09:35:01.052Z,22.51
2024-03-08T09:37:07.707Z,22.38
2024-03-08T09:38:07.641Z,22.34
2024-03-08T09:39:07.672Z,22.29
2024-03-08T09:40:07.678Z,22.24
2024-03-08T09:41:07.661Z,22.20
2024-03-08T09:42:07.714Z,22.17
2024-03-08T09:43:07.656Z,22.11
2024-03-08T09:44:07.666Z,21.98
2024-03-08T09:45:07.733Z,21.94
2024-03-08T09:46:07.675Z,21.93
2024-03-08T09:47:07.667Z,21.92
2024-03-08T09:48:07.685Z,21.95
2024-03-08T09:49:07.829Z,21.97
2024-03-08T09:50:07.656Z,22.00
2024-03-08T09:51:07.668Z,22.03
2024-03-08T09:52:07.703Z,22.06
2024-03-08T09:53:07.732Z,22.08
2024-03-08T09:54:14.476Z,22.10
2024-03-08T09:55:08.793Z,22.12
2024-03-08T09:56:07.765Z,22.14
2024-03-08T09:57:07.774Z,22.14
2024-03-08T09:58:07.775Z,22.15
2024-03-08T09:59:07.844Z,22.16
2024-03-08T10:00:07.784Z,22.17
2024-03-08T10:01:07.835Z,22.19
2024-03-08T10:02:07.875Z,22.20
2024-03-08T10:03:07.773Z,22.21
2024-03-08T10:04:07.838Z,22.22
2024-03-08T10:05:07.829Z,22.23
2024-03-08T10:06:07.851Z,22.22
2024-03-08T10:07:07.892Z,22.23
2024-03-08T10:08:07.972Z,22.24
2024-03-08T10:09:07.985Z,22.25
2024-03-08T10:10:08.030Z,22.27
2024-03-08T10:11:08.223Z,22.27
2024-03-08T10:12:08.133Z,22.28
2024-03-08T10:13:08.139Z,22.28
2024-03-08T10:14:08.203Z,22.28
2024-03-08T10:15:08.234Z,22.29
2024-03-08T10:16:08.314Z,22.31
2024-03-08T10:17:08.315Z,22.31
2024-03-08T10:18:08.402Z,22.30
2024-03-08T10:19:08.407Z,22.31
2024-03-08T10:20:08.414Z,22.33
2024-03-08T10:21:08.693Z,22.33
2024-03-08T10:22:09.276Z,22.32
2024-03-08T10:23:11.574Z,22.31
2024-03-08T10:24:08.501Z,22.30
2024-03-08T10:25:08.523Z,22.30
2024-03-08T10:26:08.591Z,22.31
2024-03-08T10:27:08.588Z,22.32
2024-03-08T10:28:08.573Z,22.31
2024-03-08T10:29:08.777Z,22.29
2024-03-08T10:30:08.564Z,22.28
2024-03-08T10:31:08.538Z,22.27
2024-03-08T10:32:08.671Z,22.28
2024-03-08T10:33:08.603Z,22.30
2024-03-08T10:34:08.566Z,22.33
2024-03-08T10:35:08.541Z,22.34
2024-03-08T10:36:08.520Z,22.40
2024-03-08T10:37:08.525Z,22.42
2024-03-08T10:38:08.530Z,22.45
2024-03-08T10:39:08.538Z,22.44
2024-03-08T10:40:08.508Z,22.44
2024-03-08T10:41:08.586Z,22.43
2024-03-08T10:42:08.548Z,22.44
2024-03-08T10:43:08.521Z,22.44
2024-03-08T10:44:08.637Z,22.44
2024-03-08T10:45:08.528Z,22.44
2024-03-08T10:46:08.520Z,22.44
2024-03-08T10:47:08.524Z,22.42
2024-03-08T10:48:08.606Z,22.42
2024-03-08T10:49:08.774Z,22.45
2024-03-08T10:50:08.523Z,22.48
2024-03-08T10:51:08.830Z,22.51
2024-03-08T10:52:08.534Z,22.54
2024-03-08T10:53:08.531Z,22.57
2024-03-08T10:54:08.538Z,22.61
2024-03-08T10:55:08.532Z,22.64
2024-03-08T10:56:08.730Z,22.66
2024-03-08T10:57:08.522Z,22.68
2024-03-08T10:58:08.529Z,22.70
2024-03-08T10:59:08.547Z,22.72
2024-03-08T11:00:08.520Z,22.73
2024-03-08T11:01:08.608Z,22.75
2024-03-08T11:02:08.604Z,22.79
2024-03-08T11:03:08.522Z,22.80
2024-03-08T11:04:08.552Z,22.82
2024-03-08T11:05:08.561Z,22.82
2024-03-08T11:06:08.546Z,22.83
2024-03-08T11:07:08.581Z,22.86
2024-03-08T11:08:08.533Z,22.86
2024-03-08T11:09:08.606Z,22.87
2024-03-08T11:10:08.696Z,22.86
2024-03-08T11:11:08.894Z,22.86
2024-03-08T11:12:08.855Z,22.88
2024-03-08T11:13:08.874Z,22.88
2024-03-08T11:14:08.964Z,22.90
2024-03-08T11:15:09.043Z,22.93
2024-03-08T11:16:09.069Z,22.94
2024-03-08T11:17:09.182Z,22.94
2024-03-08T11:18:09.287Z,22.95
2024-03-08T11:19:09.307Z,22.95
2024-03-08T11:20:09.311Z,22.97
2024-03-08T11:21:09.379Z,22.97
2024-03-08T11:22:09.549Z,22.98
2024-03-08T11:23:11.828Z,22.98
2024-03-08T11:24:09.617Z,23.00
2024-03-08T11:25:09.677Z,23.00
2024-03-08T11:26:09.730Z,23.00
2024-03-08T11:27:09.763Z,23.03
2024-03-08T11:28:09.956Z,23.03
2024-03-08T11:29:09.875Z,23.02
2024-03-08T11:30:09.967Z,23.05
2024-03-08T11:31:10.005Z,23.07
2024-03-08T11:32:10.148Z,23.09
2024-03-08T11:33:10.884Z,23.10
2024-03-08T11:34:10.226Z,23.11
2024-03-08T11:35:10.237Z,23.10
2024-03-08T11:36:10.356Z,23.07
2024-03-08T11:37:10.336Z,23.05
2024-03-08T11:38:10.352Z,23.03
2024-03-08T11:39:10.417Z,23.02
2024-03-08T11:40:10.405Z,23.02
2024-03-08T11:41:10.509Z,23.02
2024-03-08T11:42:10.492Z,22.99
2024-03-08T11:43:10.506Z,22.97
2024-03-08T11:44:10.813Z,22.95
2024-03-08T11:45:10.610Z,22.91
2024-03-08T11:46:10.620Z,22.87
2024-03-08T11:47:10.670Z,22.84
2024-03-08T11:48:10.692Z,22.80
2024-03-08T11:49:10.737Z,22.77
2024-03-08T11:50:10.770Z,22.74
2024-03-08T11:51:10.787Z,22.73
2024-03-08T11:52:10.767Z,22.72
2024-03-08T11:53:10.779Z,22.71
2024-03-08T11:54:10.787Z,22.70
2024-03-08T11:55:10.791Z,22.69
2024-03-08T11:56:11.075Z,22.67
2024-03-08T11:57:10.802Z,22.67
2024-03-08T11:58:10.851Z,22.67
2024-03-08T11:59:10.810Z,22.65
2024-03-08T12:00:10.884Z,22.64
2024-03-08T12:01:10.944Z,22.63
2024-03-08T12:02:10.985Z,22.61
2024-03-08T12:03:11.005Z,22.60
2024-03-08T12:04:10.992Z,22.59
2024-03-08T12:05:10.894Z,22.58
2024-03-08T12:06:11.019Z,22.57
2024-03-08T12:07:10.891Z,22.56
2024-03-08T12:08:11.081Z,22.56
2024-03-08T12:09:10.890Z,22.55
2024-03-08T12:10:10.901Z,22.55
2024-03-08T12:11:11.066Z,22.55
2024-03-08T12:12:11.002Z,22.55
2024-03-08T12:13:10.945Z,22.55
2024-03-08T12:14:10.990Z,22.55
2024-03-08T12:15:10.984Z,22.55
2024-03-08T12:16:11.022Z,22.54
2024-03-08T12:17:13.660Z,22.53
2024-03-08T12:18:11.051Z,22.53
2024-03-08T12:19:11.050Z,22.52
2024-03-08T12:20:11.027Z,22.51
2024-03-08T12:21:11.098Z,22.50
2024-03-08T12:22:11.070Z,22.50
2024-03-08T12:23:11.034Z,22.49
2024-03-08T12:24:11.329Z,22.48
2024-03-08T12:25:11.038Z,22.47
2024-03-08T12:26:11.048Z,22.46
2024-03-08T12:27:11.038Z,22.45
2024-03-08T12:28:11.068Z,22.45
2024-03-08T12:29:11.406Z,22.44
2024-03-08T12:30:11.111Z,22.43
2024-03-08T12:31:11.097Z,22.42
2024-03-08T12:32:11.024Z,22.42
2024-03-08T12:33:11.045Z,22.41
2024-03-08T12:34:11.029Z,22.40
2024-03-08T12:35:11.066Z,22.39
2024-03-08T12:36:11.037Z,22.38
2024-03-08T12:37:11.138Z,22.38
2024-03-08T12:38:11.033Z,22.37
2024-03-08T12:39:11.048Z,22.36
2024-03-08T12:40:11.083Z,22.35
2024-03-08T12:41:11.069Z,22.35
2024-03-08T12:42:11.077Z,22.35
2024-03-08T12:43:11.067Z,22.34
2024-03-08T12:44:11.055Z,22.34
2024-03-08T12:45:11.053Z,22.33
2024-03-08T12:46:11.840Z,22.33
2024-03-08T12:47:11.082Z,22.32
2024-03-08T12:48:11.104Z,22.31
2024-03-08T12:49:11.059Z,22.31
2024-03-08T12:50:11.060Z,22.30
2024-03-08T12:51:11.060Z,22.29
2024-03-08T12:52:11.060Z,22.29
2024-03-08T12:53:11.096Z,22.29
2024-03-08T12:54:11.069Z,22.28
2024-03-08T12:55:11.074Z,22.28
2024-03-08T12:56:11.226Z,22.28